createdAt,value
2022-10-24T00:01:19.731Z,98548.06
2022-10-24T00:03:48.198Z,98543.78
2022-10-24T00:06:16.721Z,98544.44
2022-10-24T00:08:44.975Z,98548.44
2022-10-24T00:11:16.274Z,98529.00
2022-10-24T00:13:43.747Z,98543.66
2022-10-24T00:16:11.291Z,98539.66
2022-10-24T00:18:38.888Z,98542.06
2022-10-24T00:21:07.615Z,98546.81
2022-10-24T00:23:35.465Z,98545.88
2022-10-24T00:26:04.423Z,98549.56
2022-10-24T00:28:35.154Z,98549.09
2022-10-24T00:31:02.889Z,98544.44
2022-10-24T00:33:30.254Z,98545.84
2022-10-24T00:35:57.698Z,98542.97
2022-10-24T00:38:25.127Z,98548.16
2022-10-24T00:40:52.708Z,98535.34
2022-10-24T00:43:23.501Z,98529.28
2022-10-24T00:45:57.647Z,98539.97
2022-10-24T00:48:28.530Z,98540.47
2022-10-24T00:50:59.213Z,98542.34
2022-10-24T00:53:29.345Z,98534.22
2022-10-24T00:56:00.261Z,98543.22
2022-10-24T00:58:31.072Z,98537.22
2022-10-24T01:01:00.596Z,98538.50
2022-10-24T01:03:28.415Z,98551.88
2022-10-24T01:06:14.652Z,98550.25
2022-10-24T01:08:48.684Z,98548.31
2022-10-24T01:11:27.624Z,98529.09
2022-10-24T01:14:03.680Z,98533.59
2022-10-24T01:16:43.073Z,98541.06
2022-10-24T01:19:35.503Z,98539.31
2022-10-24T01:22:05.759Z,98538.66
2022-10-24T01:24:49.697Z,98532.72
2022-10-24T01:27:41.487Z,98538.97
2022-10-24T01:30:13.109Z,98536.91
2022-10-24T01:32:52.516Z,98537.16
2022-10-24T01:38:05.836Z,98557.63
2022-10-24T01:40:37.004Z,98547.47
2022-10-24T01:43:10.892Z,98552.56
2022-10-24T01:45:42.395Z,98547.16
2022-10-24T01:48:14.531Z,98547.16
2022-10-24T01:50:45.581Z,98529.91
2022-10-24T01:53:13.823Z,98543.34
2022-10-24T01:55:42.790Z,98538.25
2022-10-24T01:58:10.111Z,98547.13
2022-10-24T02:00:37.646Z,98545.94
2022-10-24T02:03:14.277Z,98555.00
2022-10-24T02:05:46.074Z,98549.66
2022-10-24T02:08:19.006Z,98545.88
2022-10-24T02:10:51.229Z,98538.00
2022-10-24T02:13:26.516Z,98544.41
2022-10-24T02:15:57.476Z,98541.78
2022-10-24T02:18:26.295Z,98543.16
2022-10-24T02:20:59.605Z,98550.41
2022-10-24T02:23:32.321Z,98546.09
2022-10-24T02:26:02.551Z,98550.88
2022-10-24T02:28:35.398Z,98557.47
2022-10-24T02:31:08.278Z,98548.25
2022-10-24T02:33:41.152Z,98560.06
2022-10-24T02:36:10.335Z,98566.63
2022-10-24T02:38:41.288Z,98564.09
2022-10-24T02:41:19.122Z,98567.56
2022-10-24T02:43:47.109Z,98565.59
2022-10-24T02:46:15.688Z,98569.81
2022-10-24T02:48:50.177Z,98571.31
2022-10-24T02:51:20.527Z,98574.44
2022-10-24T02:53:47.978Z,98565.66
2022-10-24T02:56:15.261Z,98573.41
2022-10-24T02:58:42.664Z,98574.34
2022-10-24T03:01:10.291Z,98576.09
2022-10-24T03:03:37.769Z,98571.00
2022-10-24T03:06:07.492Z,98575.94
2022-10-24T03:08:35.062Z,98577.13
2022-10-24T03:11:02.352Z,98580.59
2022-10-24T03:13:29.570Z,98580.84
2022-10-24T03:15:56.789Z,98588.56
2022-10-24T03:18:24.232Z,98588.06
2022-10-24T03:20:51.537Z,98594.88
2022-10-24T03:23:22.016Z,98593.00
2022-10-24T03:25:49.322Z,98607.78
2022-10-24T03:28:16.624Z,98604.84
2022-10-24T03:30:44.142Z,98606.66
2022-10-24T03:33:11.370Z,98600.69
2022-10-24T03:35:38.669Z,98601.19
2022-10-24T03:38:08.316Z,98600.84
2022-10-24T03:40:37.502Z,98608.75
2022-10-24T03:43:04.977Z,98609.25
2022-10-24T03:45:32.187Z,98621.25
2022-10-24T03:47:59.534Z,98612.50
2022-10-24T03:50:26.940Z,98614.41
2022-10-24T03:52:54.357Z,98614.25
2022-10-24T03:55:21.765Z,98617.59
2022-10-24T03:57:50.446Z,98623.56
2022-10-24T04:00:19.407Z,98627.19
2022-10-24T04:02:47.268Z,98621.47
2022-10-24T04:05:14.956Z,98634.38
2022-10-24T04:07:42.399Z,98627.81
2022-10-24T04:10:10.248Z,98633.69
2022-10-24T04:12:37.774Z,98636.25
2022-10-24T04:15:07.672Z,98633.63
2022-10-24T04:17:35.248Z,98639.41
2022-10-24T04:20:02.462Z,98637.66
2022-10-24T04:22:30.583Z,98648.88
2022-10-24T04:24:57.897Z,98645.38
2022-10-24T04:27:25.249Z,98645.09
2022-10-24T04:29:52.501Z,98644.53
2022-10-24T04:32:21.053Z,98649.41
2022-10-24T04:34:48.943Z,98649.47
2022-10-24T04:37:16.218Z,98657.16
2022-10-24T04:39:43.365Z,98660.38
2022-10-24T04:42:10.664Z,98667.06
2022-10-24T04:44:37.841Z,98665.59
2022-10-24T04:47:05.093Z,98668.25
2022-10-24T04:49:33.869Z,98677.50
2022-10-24T04:52:01.081Z,98669.22
2022-10-24T04:54:28.354Z,98669.22
2022-10-24T04:56:55.784Z,98670.03
2022-10-24T04:59:23.329Z,98670.03
2022-10-24T05:01:50.668Z,98674.59
2022-10-24T05:04:18.101Z,98681.53
2022-10-24T05:06:47.181Z,98694.38
2022-10-24T05:09:14.783Z,98698.09
2022-10-24T05:11:42.514Z,98697.44
2022-10-24T05:14:09.945Z,98697.72
2022-10-24T05:16:37.215Z,98697.72
2022-10-24T05:19:04.373Z,98706.66
2022-10-24T05:21:33.243Z,98705.44
2022-10-24T05:24:01.965Z,98702.09
2022-10-24T05:26:29.281Z,98714.94
2022-10-24T05:28:56.747Z,98711.75
2022-10-24T05:31:24.047Z,98723.22
2022-10-24T05:33:51.569Z,98726.31
2022-10-24T05:36:18.927Z,98727.53
2022-10-24T05:38:46.229Z,98730.47
2022-10-24T05:41:14.956Z,98734.75
2022-10-24T05:43:42.137Z,98734.75
2022-10-24T05:46:10.273Z,98737.97
2022-10-24T05:48:37.522Z,98743.16
2022-10-24T05:51:05.352Z,98741.78
2022-10-24T05:53:32.545Z,98735.47
2022-10-24T05:55:59.884Z,98732.38
2022-10-24T05:58:28.934Z,98737.06
2022-10-24T06:00:56.404Z,98733.09
2022-10-24T06:03:23.980Z,98742.28
2022-10-24T06:05:51.542Z,98746.81
2022-10-24T06:08:18.840Z,98746.09
2022-10-24T06:10:47.757Z,98749.81
2022-10-24T06:13:15.461Z,98753.00
2022-10-24T06:15:44.774Z,98759.19
2022-10-24T06:18:12.380Z,98756.47
2022-10-24T06:20:39.941Z,98761.28
2022-10-24T06:23:07.167Z,98754.16
2022-10-24T06:25:34.413Z,98758.44
2022-10-24T06:28:01.748Z,98758.56
2022-10-24T06:30:29.207Z,98762.84
2022-10-24T06:32:57.822Z,98764.19
2022-10-24T06:35:25.121Z,98756.94
2022-10-24T06:37:52.576Z,98762.66
2022-10-24T06:40:20.211Z,98756.31
2022-10-24T06:42:47.655Z,98767.16
2022-10-24T06:45:14.990Z,98766.50
2022-10-24T06:47:42.645Z,98768.91
2022-10-24T06:50:11.594Z,98771.31
2022-10-24T06:52:39.021Z,98771.00
2022-10-24T06:55:06.996Z,98771.00
2022-10-24T06:57:34.210Z,98771.81
2022-10-24T07:00:01.448Z,98785.97
2022-10-24T07:02:28.752Z,98788.72
2022-10-24T07:04:57.621Z,98781.81
2022-10-24T07:07:26.506Z,98780.34
2022-10-24T07:09:55.658Z,98788.59
2022-10-24T07:12:23.936Z,98787.47
2022-10-24T07:14:51.480Z,98788.00
2022-10-24T07:17:19.968Z,98788.50
2022-10-24T07:19:53.081Z,98792.66
2022-10-24T07:22:20.519Z,98781.19
2022-10-24T07:24:54.310Z,98796.72
2022-10-24T07:27:21.836Z,98791.88
2022-10-24T07:29:49.139Z,98795.69
2022-10-24T07:32:16.395Z,98797.16
2022-10-24T07:34:43.782Z,98813.84
2022-10-24T07:37:11.023Z,98811.16
2022-10-24T07:39:38.199Z,98799.41
2022-10-24T07:42:06.982Z,98806.34
2022-10-24T07:44:34.404Z,98813.41
2022-10-24T07:47:01.670Z,98803.00
2022-10-24T07:49:31.458Z,98808.78
2022-10-24T07:52:00.821Z,98812.75
2022-10-24T07:54:30.721Z,98810.81
2022-10-24T07:57:00.266Z,98804.19
2022-10-24T07:59:41.408Z,98826.84
2022-10-24T08:02:11.262Z,98820.16
2022-10-24T08:04:38.603Z,98820.31
2022-10-24T08:07:08.305Z,98825.91
2022-10-24T08:09:38.190Z,98824.78
2022-10-24T08:12:05.541Z,98814.88
2022-10-24T08:14:34.745Z,98822.34
2022-10-24T08:17:02.320Z,98836.75
2022-10-24T08:19:29.539Z,98844.72
2022-10-24T08:21:56.979Z,98843.00
2022-10-24T08:24:24.366Z,98843.25
2022-10-24T08:26:51.839Z,98843.66
2022-10-24T08:29:25.510Z,98849.66
2022-10-24T08:31:56.030Z,98848.19
2022-10-24T08:34:23.582Z,98845.84
2022-10-24T08:36:50.927Z,98850.69
2022-10-24T08:39:18.789Z,98858.88
2022-10-24T08:41:51.158Z,98863.75
2022-10-24T08:44:26.455Z,98861.03
2022-10-24T08:46:58.734Z,98869.28
2022-10-24T08:49:38.646Z,98864.72
2022-10-24T08:52:18.373Z,98857.53
2022-10-24T08:54:46.949Z,98858.84
2022-10-24T08:57:22.909Z,98866.75
2022-10-24T08:59:52.257Z,98859.13
2022-10-24T09:02:24.966Z,98858.03
2022-10-24T09:04:57.409Z,98868.41
2022-10-24T09:07:25.759Z,98878.50
2022-10-24T09:10:03.673Z,98888.28
2022-10-24T09:12:31.183Z,98897.88
2022-10-24T09:15:00.389Z,98905.53
2022-10-24T09:17:32.816Z,98906.34
2022-10-24T09:20:01.297Z,98907.84
2022-10-24T09:22:32.471Z,98915.56
2022-10-24T09:25:03.768Z,98908.69
2022-10-24T09:27:34.211Z,98912.91
2022-10-24T09:30:02.034Z,98907.09
2022-10-24T09:32:34.143Z,98922.13
2022-10-24T09:35:05.382Z,98919.09
2022-10-24T09:37:42.551Z,98920.81
2022-10-24T09:40:19.693Z,98917.34
2022-10-24T09:42:53.851Z,98919.88
2022-10-24T09:45:37.871Z,98932.59
2022-10-24T09:48:17.904Z,98938.91
2022-10-24T09:50:47.390Z,98942.13
2022-10-24T09:53:25.503Z,98942.78
2022-10-24T09:55:55.925Z,98946.47
2022-10-24T09:58:32.425Z,98941.25
2022-10-24T10:01:03.126Z,98948.94
2022-10-24T10:03:32.746Z,98938.06
2022-10-24T10:06:04.734Z,98937.91
2022-10-24T10:08:34.791Z,98951.38
2022-10-24T10:11:06.441Z,98941.19
2022-10-24T10:13:45.968Z,98948.56
2022-10-24T10:16:22.961Z,98944.00
2022-10-24T10:19:01.707Z,98947.50
2022-10-24T10:21:53.318Z,98945.00
2022-10-24T10:24:25.601Z,98948.25
2022-10-24T10:26:53.048Z,98963.00
2022-10-24T10:29:24.515Z,98958.81
2022-10-24T10:31:59.576Z,98954.22
2022-10-24T10:34:37.447Z,98962.91
2022-10-24T10:37:27.141Z,98953.31
2022-10-24T10:40:11.873Z,98962.63
2022-10-24T10:42:49.444Z,98971.56
2022-10-24T10:45:30.959Z,98966.50
2022-10-24T10:48:09.115Z,98974.41
2022-10-24T10:50:41.713Z,98978.91
2022-10-24T10:53:27.226Z,98972.69
2022-10-24T10:56:04.540Z,98963.13
2022-10-24T10:58:44.000Z,98973.50
2022-10-24T11:01:23.574Z,98957.50
2022-10-24T11:03:58.268Z,98958.63
2022-10-24T11:06:44.436Z,98966.28
2022-10-24T11:09:31.283Z,98969.19
2022-10-24T11:12:06.094Z,98970.31
2022-10-24T11:14:37.043Z,98972.53
2022-10-24T11:17:13.180Z,98972.34
2022-10-24T11:19:48.747Z,98967.19
2022-10-24T11:22:23.294Z,98957.56
2022-10-24T11:24:57.586Z,98948.44
2022-10-24T11:27:29.835Z,98961.13
2022-10-24T11:29:59.230Z,98976.16
2022-10-24T11:32:34.538Z,98972.38
2022-10-24T11:35:14.145Z,98972.06
2022-10-24T11:37:46.138Z,98970.16
2022-10-24T11:40:17.671Z,98976.38
2022-10-24T11:42:50.947Z,98975.25
2022-10-24T11:45:20.591Z,98979.19
2022-10-24T11:48:00.670Z,98969.75
2022-10-24T11:50:34.825Z,98964.53
2022-10-24T11:53:18.545Z,98976.75
2022-10-24T11:55:50.694Z,98973.94
2022-10-24T11:58:22.276Z,98975.09
2022-10-24T12:01:10.239Z,98994.69
2022-10-24T12:04:02.332Z,98996.97
2022-10-24T12:07:07.941Z,99001.25
2022-10-24T12:10:07.743Z,99001.28
2022-10-24T12:12:55.376Z,99005.91
2022-10-24T12:15:41.364Z,99000.28
2022-10-24T12:18:14.055Z,98999.59
2022-10-24T12:20:42.112Z,99005.13
2022-10-24T12:23:20.919Z,99022.72
2022-10-24T12:26:02.609Z,99018.22
2022-10-24T12:28:29.989Z,99015.91
2022-10-24T12:31:25.279Z,99009.06
2022-10-24T12:34:30.884Z,99027.72
2022-10-24T12:37:03.784Z,99023.63
2022-10-24T12:39:32.766Z,99031.03
2022-10-24T12:42:01.730Z,99034.53
2022-10-24T12:44:53.024Z,99043.38
2022-10-24T12:47:35.488Z,99043.41
2022-10-24T12:50:56.513Z,99043.16
2022-10-24T12:54:02.277Z,99046.34
2022-10-24T12:56:30.728Z,99045.94
2022-10-24T12:59:04.918Z,99054.72
2022-10-24T13:01:34.727Z,99050.91
2022-10-24T13:04:38.876Z,99068.50
2022-10-24T13:07:30.185Z,99063.63
2022-10-24T13:10:09.759Z,99066.25
2022-10-24T13:12:54.982Z,99063.72
2022-10-24T13:15:40.251Z,99067.25
2022-10-24T13:18:24.527Z,99060.38
2022-10-24T13:21:14.965Z,99066.72
2022-10-24T13:23:44.806Z,99071.16
2022-10-24T13:26:34.986Z,99063.47
2022-10-24T13:29:02.411Z,99079.50
2022-10-24T13:31:43.213Z,99069.44
2022-10-24T13:34:32.894Z,99074.84
2022-10-24T13:37:16.448Z,99086.47
2022-10-24T13:39:49.684Z,99087.66
2022-10-24T13:42:26.130Z,99086.38
2022-10-24T13:44:58.908Z,99086.69
2022-10-24T13:47:32.168Z,99089.59
2022-10-24T13:50:02.929Z,99093.88
2022-10-24T13:52:38.811Z,99092.72
2022-10-24T13:55:22.208Z,99096.69
2022-10-24T13:57:53.244Z,99087.19
2022-10-24T14:00:24.259Z,99109.25
2022-10-24T14:02:54.489Z,99106.91
2022-10-24T14:05:40.520Z,99110.41
2022-10-24T14:08:11.538Z,99118.22
2022-10-24T14:10:39.196Z,99113.13
2022-10-24T14:13:07.002Z,99111.84
2022-10-24T14:15:34.425Z,99111.63
2022-10-24T14:18:07.296Z,99120.19
2022-10-24T14:20:36.948Z,99124.28
2022-10-24T14:23:22.432Z,99141.22
2022-10-24T14:25:54.591Z,99142.09
2022-10-24T14:28:25.389Z,99145.59
2022-10-24T14:30:54.839Z,99154.63
2022-10-24T14:33:25.444Z,99152.88
2022-10-24T14:35:56.995Z,99151.28
2022-10-24T14:38:27.120Z,99157.47
2022-10-24T14:41:07.896Z,99161.75
2022-10-24T14:43:40.337Z,99161.25
2022-10-24T14:46:33.132Z,99169.38
2022-10-24T14:49:20.376Z,99172.13
2022-10-24T14:51:49.420Z,99170.81
2022-10-24T14:54:19.829Z,99172.72
2022-10-24T14:56:48.481Z,99171.53
2022-10-24T14:59:22.649Z,99185.50
2022-10-24T15:01:58.254Z,99181.66
2022-10-24T15:04:36.326Z,99186.66
2022-10-24T15:07:14.963Z,99193.63
2022-10-24T15:09:56.433Z,99195.38
2022-10-24T15:12:37.453Z,99199.88
2022-10-24T15:15:25.031Z,99200.94
2022-10-24T15:17:54.049Z,99206.72
2022-10-24T15:20:27.465Z,99221.31
2022-10-24T15:22:57.958Z,99221.06
2022-10-24T15:25:29.625Z,99210.78
2022-10-24T15:28:00.604Z,99224.16
2022-10-24T15:30:30.274Z,99216.28
2022-10-24T15:32:59.453Z,99226.72
2022-10-24T15:35:29.322Z,99235.53
2022-10-24T15:37:58.778Z,99227.38
2022-10-24T15:40:30.397Z,99238.75
2022-10-24T15:42:57.687Z,99236.88
2022-10-24T15:45:25.432Z,99232.72
2022-10-24T15:47:53.115Z,99239.56
2022-10-24T15:52:58.149Z,99243.28
2022-10-24T15:55:27.615Z,99241.94
2022-10-24T15:57:57.208Z,99250.06
2022-10-24T16:00:25.774Z,99241.91
2022-10-24T16:02:56.544Z,99241.06
2022-10-24T16:05:27.960Z,99246.50
2022-10-24T16:07:56.751Z,99240.25
2022-10-24T16:10:24.247Z,99249.28
2022-10-24T16:12:51.734Z,99249.41
2022-10-24T16:15:22.221Z,99258.09
2022-10-24T16:17:49.610Z,99258.91
2022-10-24T16:20:17.260Z,99256.75
2022-10-24T16:22:44.837Z,99262.34
2022-10-24T16:25:16.761Z,99272.72
2022-10-24T16:27:44.256Z,99270.03
2022-10-24T16:30:12.759Z,99267.75
2022-10-24T16:32:39.976Z,99273.06
2022-10-24T16:35:07.936Z,99277.22
2022-10-24T16:37:35.365Z,99275.59
2022-10-24T16:40:02.658Z,99270.91
2022-10-24T16:42:31.889Z,99279.34
2022-10-24T16:44:59.282Z,99281.31
2022-10-24T16:47:26.696Z,99277.00
2022-10-24T16:49:56.067Z,99286.16
2022-10-24T16:52:23.349Z,99283.56
2022-10-24T16:54:50.794Z,99290.50
2022-10-24T16:57:17.986Z,99291.41
2022-10-24T16:59:46.842Z,99297.56
2022-10-24T17:02:15.577Z,99298.03
2022-10-24T17:04:43.304Z,99306.81
2022-10-24T17:07:10.718Z,99309.47
2022-10-24T17:09:38.073Z,99308.13
2022-10-24T17:12:06.743Z,99315.03
2022-10-24T17:14:34.652Z,99312.84
2022-10-24T17:17:04.085Z,99316.78
2022-10-24T17:19:32.187Z,99313.84
2022-10-24T17:21:59.742Z,99319.84
2022-10-24T17:24:27.322Z,99315.69
2022-10-24T17:26:54.999Z,99319.13
2022-10-24T17:29:25.782Z,99300.94
2022-10-24T17:31:53.756Z,99320.75
2022-10-24T17:34:22.771Z,99320.56
2022-10-24T17:36:56.761Z,99336.91
2022-10-24T17:39:27.333Z,99331.16
2022-10-24T17:41:55.085Z,99327.72
2022-10-24T17:44:22.905Z,99340.13
2022-10-24T17:46:54.517Z,99332.28
2022-10-24T17:49:26.845Z,99331.34
2022-10-24T17:51:54.184Z,99331.34
2022-10-24T17:54:21.495Z,99334.16
2022-10-24T17:56:48.882Z,99340.94
2022-10-24T17:59:16.150Z,99336.69
2022-10-24T18:01:43.522Z,99336.91
2022-10-24T18:04:10.828Z,99346.13
2022-10-24T18:06:42.262Z,99343.28
2022-10-24T18:09:11.208Z,99357.22
2022-10-24T18:11:40.070Z,99353.97
2022-10-24T18:14:07.383Z,99351.69
2022-10-24T18:16:37.112Z,99356.88
2022-10-24T18:19:04.948Z,99359.31
2022-10-24T18:21:32.431Z,99359.09
2022-10-24T18:24:01.289Z,99359.31
2022-10-24T18:26:28.705Z,99359.19
2022-10-24T18:28:56.565Z,99364.38
2022-10-24T18:31:26.150Z,99354.94
2022-10-24T18:33:53.944Z,99365.06
2022-10-24T18:36:23.287Z,99369.81
2022-10-24T18:38:50.648Z,99367.00
2022-10-24T18:41:33.724Z,99370.13
2022-10-24T18:44:02.870Z,99372.41
2022-10-24T18:46:30.912Z,99365.75
2022-10-24T18:48:58.665Z,99371.38
2022-10-24T18:51:31.805Z,99372.75
2022-10-24T18:54:03.629Z,99367.59
2022-10-24T18:56:32.735Z,99373.56
2022-10-24T18:59:00.296Z,99375.28
2022-10-24T19:01:36.902Z,99377.00
2022-10-24T19:04:13.330Z,99377.94
2022-10-24T19:06:41.441Z,99379.44
2022-10-24T19:09:16.746Z,99384.88
2022-10-24T19:11:46.161Z,99386.00
2022-10-24T19:14:15.055Z,99386.00
2022-10-24T19:16:44.655Z,99389.22
2022-10-24T19:19:13.140Z,99389.34
2022-10-24T19:21:40.478Z,99393.31
2022-10-24T19:24:08.318Z,99386.63
2022-10-24T19:26:35.534Z,99386.44
2022-10-24T19:29:05.819Z,99387.09
2022-10-24T19:31:33.410Z,99390.03
2022-10-24T19:34:01.069Z,99396.66
2022-10-24T19:36:29.404Z,99395.59
2022-10-24T19:38:57.071Z,99405.81
2022-10-24T19:41:24.648Z,99398.38
2022-10-24T19:43:51.979Z,99395.84
2022-10-24T19:46:20.953Z,99399.84
2022-10-24T19:48:49.479Z,99403.09
2022-10-24T19:51:18.036Z,99397.22
2022-10-24T19:53:46.588Z,99388.69
2022-10-24T19:56:17.389Z,99395.44
2022-10-24T19:58:46.541Z,99405.56
2022-10-24T20:01:16.418Z,99405.88
2022-10-24T20:03:46.921Z,99408.63
2022-10-24T20:06:14.847Z,99413.31
2022-10-24T20:08:42.775Z,99407.06
2022-10-24T20:11:10.245Z,99411.22
2022-10-24T20:13:37.644Z,99416.59
2022-10-24T20:16:06.777Z,99419.44
2022-10-24T20:18:35.544Z,99411.38
2022-10-24T20:21:05.604Z,99415.34
2022-10-24T20:23:33.643Z,99414.31
2022-10-24T20:26:03.676Z,99413.31
2022-10-24T20:28:33.817Z,99407.53
2022-10-24T20:31:01.173Z,99418.94
2022-10-24T20:33:28.382Z,99415.81
2022-10-24T20:35:58.634Z,99415.59
2022-10-24T20:38:28.148Z,99414.38
2022-10-24T20:40:55.387Z,99424.00
2022-10-24T20:43:22.516Z,99430.63
2022-10-24T20:45:49.950Z,99432.63
2022-10-24T20:48:17.146Z,99432.31
2022-10-24T20:50:44.451Z,99441.13
2022-10-24T20:53:11.685Z,99446.91
2022-10-24T20:55:44.288Z,99442.94
2022-10-24T20:58:12.770Z,99442.06
2022-10-24T21:03:14.414Z,99442.72
2022-10-24T21:05:41.803Z,99448.41
2022-10-24T21:08:09.340Z,99453.34
2022-10-24T21:10:36.742Z,99445.38
2022-10-24T21:13:05.731Z,99452.25
2022-10-24T21:15:33.013Z,99443.97
2022-10-24T21:18:00.368Z,99450.44
2022-10-24T21:20:27.608Z,99449.63
2022-10-24T21:22:54.947Z,99459.41
2022-10-24T21:25:22.187Z,99458.50
2022-10-24T21:27:49.625Z,99456.47
2022-10-24T21:30:18.567Z,99459.91
2022-10-24T21:32:45.912Z,99459.91
2022-10-24T21:35:13.204Z,99467.38
2022-10-24T21:37:40.447Z,99461.53
2022-10-24T21:40:08.513Z,99471.63
2022-10-24T21:42:35.915Z,99475.56
2022-10-24T21:45:03.774Z,99475.66
2022-10-24T21:47:32.401Z,99482.53
2022-10-24T21:49:59.625Z,99488.41
2022-10-24T21:52:26.854Z,99487.91
2022-10-24T21:54:54.989Z,99483.16
2022-10-24T21:57:22.182Z,99491.66
2022-10-24T21:59:49.342Z,99482.34
2022-10-24T22:02:16.699Z,99495.28
2022-10-24T22:04:46.810Z,99491.16
2022-10-24T22:07:14.126Z,99497.69
2022-10-24T22:09:41.300Z,99499.31
2022-10-24T22:12:08.539Z,99496.78
2022-10-24T22:14:35.907Z,99498.41
2022-10-24T22:17:03.125Z,99500.53
2022-10-24T22:19:30.362Z,99498.50
2022-10-24T22:21:59.213Z,99510.50
2022-10-24T22:24:26.421Z,99512.16
2022-10-24T22:26:53.943Z,99510.03
2022-10-24T22:29:23.058Z,99522.22
2022-10-24T22:31:52.361Z,99517.69
2022-10-24T22:34:22.262Z,99514.16
2022-10-24T22:37:13.184Z,99518.69
2022-10-24T22:39:42.648Z,99519.16
2022-10-24T22:42:13.581Z,99520.31
2022-10-24T22:44:44.049Z,99523.91
2022-10-24T22:47:26.818Z,99514.03
2022-10-24T22:50:03.344Z,99520.44
2022-10-24T22:52:31.249Z,99532.16
2022-10-24T22:55:03.465Z,99521.88
2022-10-24T22:57:31.407Z,99523.47
2022-10-24T22:59:58.926Z,99528.44
2022-10-24T23:02:32.116Z,99541.06
2022-10-24T23:05:05.376Z,99535.19
2022-10-24T23:07:41.370Z,99527.34
2022-10-24T23:10:14.129Z,99531.38
2022-10-24T23:12:41.990Z,99527.69
2022-10-24T23:15:13.730Z,99527.75
2022-10-24T23:17:41.609Z,99532.81
2022-10-24T23:20:23.230Z,99534.44
2022-10-24T23:22:58.422Z,99544.91
2022-10-24T23:25:38.529Z,99542.84
2022-10-24T23:28:12.715Z,99538.91
2022-10-24T23:30:40.835Z,99545.88
2022-10-24T23:33:16.570Z,99542.91
2022-10-24T23:35:44.695Z,99537.25
2022-10-24T23:38:12.533Z,99538.81
2022-10-24T23:40:41.741Z,99547.06
2022-10-24T23:43:14.590Z,99542.03
2022-10-24T23:45:50.582Z,99537.59
2022-10-24T23:48:25.997Z,99538.50
2022-10-24T23:50:59.525Z,99534.53
2022-10-24T23:53:40.263Z,99537.78
2022-10-24T23:56:12.171Z,99536.53
2022-10-24T23:58:39.424Z,99538.44
